createdAt,value
2022-08-14T00:02:41.532Z,6.00
2022-08-14T00:07:42.006Z,4.33
2022-08-14T00:13:06.711Z,5.07
2022-08-14T00:18:10.961Z,5.13
2022-08-14T00:23:19.585Z,8.63
2022-08-14T00:28:29.064Z,4.40
2022-08-14T00:33:52.381Z,5.40
2022-08-14T00:38:43.124Z,4.70
2022-08-14T00:43:49.074Z,6.20
2022-08-14T00:48:54.623Z,8.13
2022-08-14T00:54:03.215Z,10.03
2022-08-14T00:59:11.602Z,8.07
2022-08-14T01:04:38.237Z,7.37
2022-08-14T01:09:26.758Z,4.47
2022-08-14T01:14:35.647Z,12.67
2022-08-14T01:19:59.255Z,8.37
2022-08-14T01:25:07.833Z,12.77
2022-08-14T01:30:20.941Z,4.67
2022-08-14T01:36:01.437Z,4.40
2022-08-14T01:40:33.206Z,4.27
2022-08-14T01:45:40.595Z,4.10
2022-08-14T01:50:45.906Z,5.13
2022-08-14T01:55:51.774Z,5.27
2022-08-14T02:00:58.880Z,4.93
2022-08-14T02:06:31.941Z,5.03
2022-08-14T02:11:25.026Z,4.97
2022-08-14T02:16:35.794Z,5.20
2022-08-14T02:21:47.173Z,4.60
2022-08-14T02:28:18.608Z,4.60
2022-08-14T02:32:02.922Z,4.47
2022-08-14T02:37:11.185Z,4.80
2022-08-14T02:42:23.740Z,5.30
2022-08-14T02:47:32.008Z,5.00
2022-08-14T02:52:55.986Z,5.07
2022-08-14T02:57:45.066Z,5.40
2022-08-14T03:02:58.702Z,4.63
2022-08-14T03:08:16.032Z,5.03
2022-08-14T03:13:22.079Z,6.07
2022-08-14T03:18:31.247Z,6.57
2022-08-14T03:23:38.413Z,6.80
2022-08-14T03:28:47.890Z,5.77
2022-08-14T03:33:54.652Z,5.67
2022-08-14T03:39:15.296Z,5.47
2022-08-14T03:45:27.290Z,6.03
2022-08-14T03:49:28.144Z,6.93
2022-08-14T03:54:24.702Z,5.33
2022-08-14T03:59:31.085Z,5.50
2022-08-14T04:04:38.315Z,5.67
2022-08-14T04:09:45.178Z,6.13
2022-08-14T04:14:52.503Z,8.57
2022-08-14T04:20:00.513Z,5.63
2022-08-14T04:25:07.936Z,6.03
2022-08-14T04:30:32.897Z,5.57
2022-08-14T04:35:23.682Z,6.17
2022-08-14T04:40:47.136Z,5.07
2022-08-14T04:45:53.209Z,6.07
2022-08-14T04:50:58.923Z,6.37
2022-08-14T04:56:29.956Z,9.77
2022-08-14T05:01:19.415Z,5.83
2022-08-14T05:06:38.293Z,5.57
2022-08-14T05:11:36.462Z,6.10
2022-08-14T05:16:40.868Z,6.40
2022-08-14T05:21:59.714Z,6.00
2022-08-14T05:26:54.453Z,6.07
2022-08-14T05:32:02.648Z,6.23
2022-08-14T05:37:08.441Z,6.23
2022-08-14T05:42:21.537Z,6.30
2022-08-14T05:47:24.082Z,5.57
2022-08-14T05:52:39.353Z,5.67
2022-08-14T05:57:49.740Z,6.17
2022-08-14T06:02:56.426Z,6.30
2022-08-14T06:08:08.636Z,6.10
2022-08-14T06:13:12.841Z,6.60
2022-08-14T06:18:18.831Z,6.30
2022-08-14T06:23:24.418Z,5.83
2022-08-14T06:28:30.154Z,6.63
2022-08-14T06:35:04.236Z,5.37
2022-08-14T06:38:42.936Z,5.47
2022-08-14T06:43:49.236Z,5.20
2022-08-14T06:48:54.784Z,8.13
2022-08-14T06:54:01.068Z,6.03
2022-08-14T06:59:07.244Z,6.70
2022-08-14T07:04:32.604Z,5.97
2022-08-14T07:09:44.371Z,6.30
2022-08-14T07:14:46.194Z,6.23
2022-08-14T07:19:52.983Z,6.00
2022-08-14T07:24:58.519Z,5.40
2022-08-14T07:30:06.395Z,6.23
2022-08-14T07:35:13.678Z,5.60
2022-08-14T07:40:27.355Z,6.10
2022-08-14T07:45:26.413Z,5.37
2022-08-14T07:50:37.294Z,5.97
2022-08-14T07:55:43.897Z,5.70
2022-08-14T08:00:51.316Z,5.30
2022-08-14T08:05:58.456Z,6.00
2022-08-14T08:11:08.479Z,5.67
2022-08-14T08:16:12.045Z,6.37
2022-08-14T08:21:18.095Z,5.40
2022-08-14T08:26:26.624Z,5.73
2022-08-14T08:31:35.137Z,6.00
2022-08-14T08:36:46.630Z,5.87
2022-08-14T08:41:53.838Z,5.17
2022-08-14T08:47:01.353Z,7.13
2022-08-14T08:52:15.394Z,5.27
2022-08-14T08:57:16.060Z,4.77
2022-08-14T09:02:26.036Z,5.53
2022-08-14T09:07:31.486Z,5.70
2022-08-14T09:12:37.098Z,5.23
2022-08-14T09:17:44.396Z,5.37
2022-08-14T09:22:52.960Z,4.97
2022-08-14T09:28:00.068Z,5.17
2022-08-14T09:33:14.621Z,5.07
2022-08-14T09:38:30.158Z,4.33
2022-08-14T09:43:41.461Z,4.50
2022-08-14T09:48:49.683Z,5.40
2022-08-14T09:54:06.116Z,4.77
2022-08-14T09:59:16.067Z,3.97
2022-08-14T10:04:34.942Z,5.77
2022-08-14T10:09:37.748Z,3.23
2022-08-14T10:14:44.958Z,4.00
2022-08-14T10:19:52.152Z,6.12
2022-08-14T10:24:59.897Z,3.63
2022-08-14T10:30:12.213Z,3.87
2022-08-14T10:35:17.436Z,3.80
2022-08-14T10:40:43.788Z,3.40
2022-08-14T10:45:42.150Z,3.67
2022-08-14T10:50:48.601Z,3.30
2022-08-14T10:55:57.272Z,5.67
2022-08-14T11:01:05.727Z,3.60
2022-08-14T11:06:21.074Z,3.65
2022-08-14T11:11:28.610Z,4.50
2022-08-14T11:16:38.222Z,4.67
2022-08-14T11:21:45.662Z,4.10
2022-08-14T11:26:52.988Z,4.42
2022-08-14T11:32:00.476Z,4.15
2022-08-14T11:37:19.335Z,4.65
2022-08-14T11:42:57.236Z,3.95
2022-08-14T11:47:43.958Z,4.62
2022-08-14T11:52:46.100Z,5.05
2022-08-14T11:58:06.044Z,4.40
2022-08-14T12:03:14.794Z,4.12
2022-08-14T12:08:24.636Z,4.50
2022-08-14T12:13:31.751Z,5.00
2022-08-14T12:18:42.060Z,4.25
2022-08-14T12:23:52.065Z,7.95
2022-08-14T12:29:13.149Z,4.78
2022-08-14T12:34:24.095Z,5.12
2022-08-14T12:39:27.689Z,3.90
2022-08-14T12:44:38.459Z,3.72
2022-08-14T12:49:52.696Z,3.67
2022-08-14T12:55:08.188Z,3.95
2022-08-14T13:00:23.235Z,3.52
2022-08-14T13:05:30.690Z,3.15
2022-08-14T13:10:47.853Z,3.60
2022-08-14T13:15:55.972Z,3.60
2022-08-14T13:21:01.787Z,3.37
2022-08-14T13:26:08.301Z,3.37
2022-08-14T13:31:16.336Z,3.27
2022-08-14T13:36:23.874Z,3.77
2022-08-14T13:41:34.687Z,6.53
2022-08-14T13:46:37.686Z,3.60
2022-08-14T13:51:47.425Z,3.17
2022-08-14T13:56:55.514Z,3.67
2022-08-14T14:02:07.996Z,3.08
2022-08-14T14:07:16.266Z,3.27
2022-08-14T14:12:49.206Z,3.25
2022-08-14T14:17:31.669Z,3.95
2022-08-14T14:23:01.246Z,3.20
2022-08-14T14:27:49.130Z,3.30
2022-08-14T14:33:04.279Z,3.67
2022-08-14T14:38:09.115Z,3.40
2022-08-14T14:43:17.750Z,3.27
2022-08-14T14:48:54.501Z,3.00
2022-08-14T14:54:02.809Z,3.00
2022-08-14T14:59:10.509Z,2.98
2022-08-14T15:04:20.651Z,3.10
2022-08-14T15:09:24.377Z,4.15
2022-08-14T15:14:54.808Z,3.12
2022-08-14T15:19:37.970Z,3.27
2022-08-14T15:24:46.581Z,2.90
2022-08-14T15:29:52.092Z,3.30
2022-08-14T15:34:58.229Z,3.55
2022-08-14T15:40:05.641Z,3.55
2022-08-14T15:45:12.802Z,4.08
2022-08-14T15:50:20.069Z,3.52
2022-08-14T15:55:25.733Z,4.03
2022-08-14T16:00:55.255Z,7.75
2022-08-14T16:06:01.235Z,6.45
2022-08-14T16:11:09.313Z,5.97
2022-08-14T16:16:35.036Z,7.10
2022-08-14T16:22:02.666Z,7.30
2022-08-14T16:26:51.771Z,6.97
2022-08-14T16:31:59.218Z,6.85
2022-08-14T16:37:05.027Z,7.03
2022-08-14T16:42:39.027Z,7.60
2022-08-14T16:47:22.433Z,7.00
2022-08-14T16:52:54.593Z,6.72
2022-08-14T16:57:35.396Z,6.97
2022-08-14T17:02:43.553Z,7.70
2022-08-14T17:08:31.753Z,7.80
2022-08-14T17:13:47.403Z,7.03
2022-08-14T17:18:41.495Z,7.60
2022-08-14T17:23:47.120Z,6.92
2022-08-14T17:28:58.458Z,8.05
2022-08-14T17:34:04.414Z,7.92
2022-08-14T17:39:16.385Z,8.85
2022-08-14T17:44:34.483Z,5.80
2022-08-14T17:49:40.320Z,5.95
2022-08-14T17:54:52.957Z,5.72
2022-08-14T17:59:57.104Z,4.28
2022-08-14T18:05:03.486Z,4.35
2022-08-14T18:10:51.988Z,5.10
2022-08-14T18:15:18.310Z,4.10
2022-08-14T18:21:41.708Z,4.23
2022-08-14T18:25:36.995Z,4.83
2022-08-14T18:30:58.803Z,5.03
2022-08-14T18:35:59.870Z,4.60
2022-08-14T18:41:04.278Z,4.97
2022-08-14T18:47:00.032Z,5.10
2022-08-14T18:51:22.196Z,4.77
2022-08-14T18:56:58.008Z,5.57
2022-08-14T19:02:30.459Z,4.93
2022-08-14T19:07:36.942Z,4.43
2022-08-14T19:12:57.287Z,5.83
2022-08-14T19:18:25.927Z,4.97
2022-08-14T19:23:42.330Z,5.73
2022-08-14T19:28:50.560Z,5.13
2022-08-14T19:33:59.228Z,7.47
2022-08-14T19:39:12.117Z,5.97
2022-08-14T19:44:20.631Z,6.33
2022-08-14T19:50:25.026Z,4.93
2022-08-14T19:54:47.253Z,4.77
2022-08-14T20:00:06.268Z,5.67
2022-08-14T20:05:16.269Z,4.87
2022-08-14T20:11:08.346Z,5.30
2022-08-14T20:15:47.681Z,5.03
2022-08-14T20:20:50.414Z,5.50
2022-08-14T20:25:58.597Z,6.17
2022-08-14T20:31:19.641Z,7.73
2022-08-14T20:36:31.232Z,6.37
2022-08-14T20:41:39.738Z,7.03
2022-08-14T20:46:46.284Z,6.90
2022-08-14T20:51:59.592Z,6.83
2022-08-14T20:57:14.137Z,7.03
2022-08-14T21:02:46.252Z,9.43
2022-08-14T21:07:42.036Z,7.27
2022-08-14T21:13:26.521Z,8.00
2022-08-14T21:17:56.547Z,12.30
2022-08-14T21:23:04.552Z,7.37
2022-08-14T21:28:29.856Z,6.93
2022-08-14T21:33:22.819Z,8.70
2022-08-14T21:38:33.589Z,7.17
2022-08-14T21:43:36.862Z,7.40
2022-08-14T21:48:44.375Z,6.63
2022-08-14T21:53:58.707Z,8.27
2022-08-14T21:58:59.906Z,6.67
2022-08-14T22:04:32.621Z,7.43
2022-08-14T22:09:16.764Z,7.13
2022-08-14T22:14:26.126Z,7.40
2022-08-14T22:19:34.713Z,6.97
2022-08-14T22:24:38.806Z,7.80
2022-08-14T22:29:46.090Z,7.70
2022-08-14T22:34:53.295Z,7.40
2022-08-14T22:40:48.364Z,7.67
2022-08-14T22:45:08.878Z,7.37
2022-08-14T22:50:32.070Z,7.87
2022-08-14T22:55:22.757Z,6.53
2022-08-14T23:00:31.659Z,7.00
2022-08-14T23:05:39.604Z,7.27
2022-08-14T23:10:44.565Z,6.07
2022-08-14T23:15:52.142Z,7.43
2022-08-14T23:20:57.912Z,7.03
2022-08-14T23:26:47.323Z,8.00
2022-08-14T23:31:35.031Z,6.33
2022-08-14T23:36:36.909Z,6.70
2022-08-14T23:41:46.931Z,7.00
2022-08-14T23:46:47.774Z,8.70
2022-08-14T23:52:51.127Z,8.30
2022-08-14T23:57:03.742Z,8.27
